Time;durP1;ratioP1;P1;durP2;ratioP2;P2;SDS_P1;SDS_P2;PMS_P1;PMS_P2;Temp;Humidity;BMP_temperature;BMP_pressure;BME280_temperature;BME280_humidity;BME280_pressure;Samples;Min_cycle;Max_cycle;Signal;HPM_P1;HPM_P2
2021/12/29 00:01:11;;;;;;;;;44.50;39.75;;;;;6.71;78.12;98430.34;5029794;28;9638;-77
2021/12/29 00:03:40;;;;;;;;;38.75;36.00;;;;;6.88;77.61;98432.00;5001909;28;8890;-76
2021/12/29 00:06:09;;;;;;;;;38.50;35.50;;;;;6.90;76.99;98428.56;5081345;28;8854;-80
2021/12/29 00:08:38;;;;;;;;;41.50;32.75;;;;;6.91;76.52;98425.09;5071266;28;8876;-77
2021/12/29 00:11:07;;;;;;;;;43.75;37.75;;;;;6.96;76.00;98425.09;5067778;28;8863;-77
2021/12/29 00:13:35;;;;;;;;;41.25;36.25;;;;;6.95;76.18;98434.56;5070259;28;8862;-77
2021/12/29 00:16:05;;;;;;;;;40.75;36.25;;;;;7.02;75.86;98431.09;5050979;28;9693;-79
2021/12/29 00:18:36;;;;;;;;;36.50;33.50;;;;;7.11;75.83;98431.94;5037024;28;8873;-79
2021/12/29 00:21:07;;;;;;;;;38.40;36.60;;;;;7.14;75.80;98429.31;5066921;28;9713;-78
2021/12/29 00:23:37;;;;;;;;;44.00;39.00;;;;;7.20;75.66;98430.16;5061911;28;9685;-79
2021/12/29 00:26:25;;;;;;;;;39.80;33.60;;;;;7.28;75.06;98435.31;5067484;28;8871;-78
2021/12/29 00:28:54;;;;;;;;;34.60;30.80;;;;;7.19;74.99;98441.38;5064022;28;8854;-77
2021/12/29 00:31:23;;;;;;;;;37.50;33.75;;;;;7.21;74.89;98436.19;5050884;28;8914;-79
2021/12/29 00:34:25;;;;;;;;;38.50;36.00;;;;;7.22;74.85;98432.72;5043274;28;8863;-78
2021/12/29 00:37:23;;;;;;;;;38.50;33.00;;;;;7.15;75.47;98423.28;4967029;28;8857;-78
2021/12/29 00:40:24;;;;;;;;;41.75;36.25;;;;;7.14;75.49;98416.34;4912930;29;9721;-78
2021/12/29 00:43:11;;;;;;;;;2.00;2.00;;;;;7.10;74.93;98422.41;4928568;29;8887;-78
2021/12/29 00:46:00;;;;;;;;;19.25;16.50;;;;;7.08;75.47;98427.59;4913023;29;8871;-77
2021/12/29 00:48:36;;;;;;;;;37.20;33.40;;;;;7.10;75.65;98430.19;4912651;29;8877;-78
2021/12/29 00:51:07;;;;;;;;;34.00;32.20;;;;;7.28;75.28;98440.47;4928447;29;8955;-78
2021/12/29 00:53:36;;;;;;;;;34.75;32.25;;;;;7.28;74.65;98431.81;4912631;29;8864;-79
2021/12/29 00:56:06;;;;;;;;;40.20;35.60;;;;;7.37;74.40;98426.59;4896868;29;8868;-78
2021/12/29 00:58:35;;;;;;;;;44.25;40.00;;;;;7.48;74.45;98426.53;4903846;29;8975;-78
2021/12/29 01:01:05;;;;;;;;;36.60;34.40;;;;;7.52;74.41;98430.81;4881359;29;8895;-77
2021/12/29 01:03:36;;;;;;;;;37.50;35.75;;;;;7.53;73.79;98432.56;4909314;29;8851;-78
2021/12/29 01:06:07;;;;;;;;;39.75;37.75;;;;;7.58;73.36;98430.78;4910633;29;8931;-78
2021/12/29 01:08:36;;;;;;;;;37.50;36.75;;;;;7.61;73.01;98429.03;4893331;29;8921;-78
2021/12/29 01:11:06;;;;;;;;;38.25;32.75;;;;;7.53;73.09;98423.03;4912022;29;9029;-78
2021/12/29 01:13:41;;;;;;;;;40.00;37.75;;;;;7.49;73.95;98420.50;4946564;28;8858;-77
2021/12/29 01:16:36;;;;;;;;;27.75;25.50;;;;;7.49;73.64;98428.28;5017847;28;8904;-77
2021/12/29 01:19:00;;;;;;;;;20.25;17.00;;;;;7.46;73.97;98426.53;5070240;28;8865;-79
2021/12/29 01:21:31;;;;;;;;;43.75;39.00;;;;;7.52;73.52;98421.31;5070094;28;8841;-78
2021/12/29 01:24:01;;;;;;;;;37.50;35.25;;;;;7.48;73.79;98414.41;5060029;28;8868;-79
2021/12/29 01:26:30;;;;;;;;;39.00;37.00;;;;;7.45;74.21;98414.47;5069557;28;8885;-77
2021/12/29 01:28:59;;;;;;;;;46.75;39.00;;;;;7.36;74.36;98415.38;5020132;28;8881;-77
2021/12/29 01:31:28;;;;;;;;;33.00;31.00;;;;;7.32;75.03;98418.84;5039743;28;8900;-79
2021/12/29 01:33:59;;;;;;;;;52.50;40.00;;;;;7.37;73.93;98417.09;5087839;28;8876;-77
2021/12/29 01:36:30;;;;;;;;;24.50;21.00;;;;;7.26;74.61;98413.72;5069180;28;9623;-78
2021/12/29 01:38:58;;;;;;;;;44.25;40.25;;;;;7.18;75.12;98405.09;5069836;28;8904;-78
2021/12/29 01:41:27;;;;;;;;;40.00;36.50;;;;;7.23;75.41;98392.97;5049561;28;9634;-78
2021/12/29 01:43:56;;;;;;;;;49.75;40.25;;;;;7.07;76.24;98397.38;5061217;28;8846;-77
2021/12/29 01:46:25;;;;;;;;;35.50;34.50;;;;;6.95;76.33;98402.63;5049820;28;8872;-78
2021/12/29 01:48:54;;;;;;;;;37.00;34.00;;;;;7.06;76.14;98392.22;5063949;28;8856;-77
2021/12/29 01:51:22;;;;;;;;;42.75;39.00;;;;;7.11;75.96;98401.69;5060189;28;8887;-79
2021/12/29 01:54:04;;;;;;;;;38.50;33.50;;;;;7.17;75.43;98390.41;5037281;28;8895;-78
2021/12/29 01:56:33;;;;;;;;;41.50;35.50;;;;;7.12;75.57;98385.25;5056685;28;8861;-77
2021/12/29 01:59:02;;;;;;;;;41.00;34.50;;;;;7.08;76.41;98393.06;5091806;28;8884;-77
2021/12/29 02:01:30;;;;;;;;;42.75;40.50;;;;;7.02;76.42;98399.13;5073473;28;8885;-78
2021/12/29 02:04:00;;;;;;;;;47.50;41.50;;;;;7.05;76.37;98398.25;5073133;28;8850;-77
2021/12/29 02:06:29;;;;;;;;;37.75;32.25;;;;;7.16;75.89;98397.31;5074151;28;8842;-77
2021/12/29 02:08:59;;;;;;;;;46.50;36.00;;;;;7.18;76.06;98398.19;5073448;28;8879;-77
2021/12/29 02:11:29;;;;;;;;;36.50;31.50;;;;;7.25;75.76;98392.97;5056841;28;8972;-76
2021/12/29 02:14:00;;;;;;;;;38.25;36.75;;;;;7.25;75.16;98386.03;5056527;28;8830;-78
2021/12/29 02:16:30;;;;;;;;;40.50;37.00;;;;;7.31;75.12;98396.38;5056658;28;8882;-77
2021/12/29 02:19:02;;;;;;;;;44.75;39.00;;;;;7.12;76.09;98398.19;5067519;28;8912;-76
2021/12/29 02:21:33;;;;;;;;;37.75;37.25;;;;;7.01;75.78;98389.63;5057901;28;8934;-78
2021/12/29 02:24:18;;;;;;;;;42.00;40.00;;;;;6.97;76.48;98393.94;5036059;28;8882;-77
2021/12/29 02:26:47;;;;;;;;;36.50;33.25;;;;;7.16;75.92;98393.88;5030310;28;12150;-76
2021/12/29 02:29:19;;;;;;;;;37.00;34.00;;;;;7.25;75.78;98386.03;5073231;28;8904;-77
2021/12/29 02:31:48;;;;;;;;;29.75;25.75;;;;;7.36;75.27;98391.16;5068881;28;8960;-77
2021/12/29 02:34:17;;;;;;;;;37.25;31.50;;;;;7.44;74.33;98397.16;5070561;28;8845;-78
2021/12/29 02:36:47;;;;;;;;;38.75;34.50;;;;;7.56;74.50;98394.50;5019797;28;8856;-76
2021/12/29 02:39:20;;;;;;;;;37.00;36.50;;;;;7.54;74.18;98393.66;5052405;28;8944;-78
2021/12/29 02:41:53;;;;;;;;;43.00;37.75;;;;;7.63;74.16;98392.69;5063328;28;8956;-80
2021/12/29 02:44:27;;;;;;;;;37.50;33.75;;;;;7.67;73.64;98396.13;5075428;28;9665;-78
2021/12/29 02:46:59;;;;;;;;;35.75;33.50;;;;;7.65;73.32;98388.34;5071213;28;8862;-78
2021/12/29 02:49:28;;;;;;;;;37.60;34.60;;;;;7.69;73.62;98392.66;5071037;28;9762;-77
2021/12/29 02:51:58;;;;;;;;;48.00;40.75;;;;;7.60;73.22;98397.94;5071505;28;9602;-76
2021/12/29 02:54:27;;;;;;;;;42.50;35.75;;;;;7.63;73.05;98392.69;5038387;28;8880;-77
2021/12/29 02:56:56;;;;;;;;;40.00;35.25;;;;;7.60;73.86;98392.75;5087726;28;9579;-77
2021/12/29 02:59:25;;;;;;;;;52.25;35.25;;;;;7.70;74.09;98389.19;5054381;28;8870;-78
2021/12/29 03:01:54;;;;;;;;;41.50;35.00;;;;;7.80;73.05;98398.63;5068019;28;8895;-77
2021/12/29 03:04:23;;;;;;;;;39.00;37.50;;;;;7.87;72.64;98385.59;5077307;28;8845;-77
2021/12/29 03:06:52;;;;;;;;;38.50;35.75;;;;;7.66;73.39;98391.84;5070702;28;8857;-77
2021/12/29 03:09:22;;;;;;;;;44.75;39.75;;;;;7.72;73.57;98403.00;5037864;28;8922;-77
2021/12/29 03:11:51;;;;;;;;;39.75;32.50;;;;;7.80;73.26;98401.22;5071125;28;8869;-78
2021/12/29 03:14:20;;;;;;;;;40.00;33.75;;;;;7.85;72.44;98396.00;5037390;28;8854;-77
2021/12/29 03:16:50;;;;;;;;;36.75;28.75;;;;;7.80;72.98;98402.94;5084451;28;8861;-78
2021/12/29 03:19:19;;;;;;;;;42.25;40.25;;;;;7.77;72.89;98401.25;5039605;28;9000;-78
2021/12/29 03:21:50;;;;;;;;;46.75;40.25;;;;;7.77;73.29;98409.03;5015486;28;8849;-78
2021/12/29 03:24:21;;;;;;;;;43.00;41.25;;;;;7.87;72.74;98414.16;5090386;28;8889;-77
2021/12/29 03:26:51;;;;;;;;;43.25;40.75;;;;;7.96;73.16;98411.50;5072033;28;8876;-78
2021/12/29 03:29:20;;;;;;;;;48.75;39.75;;;;;7.98;72.84;98413.19;5051701;28;8879;-78
2021/12/29 03:31:50;;;;;;;;;41.75;36.25;;;;;8.06;72.74;98410.53;5065718;28;8863;-78
2021/12/29 03:34:19;;;;;;;;;35.25;33.25;;;;;8.07;72.62;98414.84;5038906;28;9574;-77
2021/12/29 03:36:48;;;;;;;;;42.00;38.75;;;;;7.97;72.05;98408.00;5054728;28;8857;-79
2021/12/29 03:39:17;;;;;;;;;38.50;33.25;;;;;7.94;72.64;98406.31;5051730;28;8980;-77
2021/12/29 03:41:46;;;;;;;;;42.25;37.25;;;;;7.89;72.56;98410.66;5011963;28;8856;-76
2021/12/29 03:44:16;;;;;;;;;39.75;35.50;;;;;7.88;72.94;98406.38;5089988;28;8873;-78
2021/12/29 03:46:45;;;;;;;;;33.00;33.00;;;;;7.87;72.68;98416.75;5071400;28;8980;-77
2021/12/29 03:49:13;;;;;;;;;41.60;34.00;;;;;7.77;73.55;98405.59;5051502;28;9007;-77
2021/12/29 03:51:42;;;;;;;;;41.50;40.50;;;;;7.76;73.07;98415.09;5071638;28;9622;-78
2021/12/29 03:54:11;;;;;;;;;34.50;31.25;;;;;7.81;73.12;98417.66;5066857;28;8921;-78
2021/12/29 03:56:40;;;;;;;;;35.50;33.25;;;;;7.80;72.62;98406.41;5049785;28;8925;-77
2021/12/29 03:59:09;;;;;;;;;44.00;39.25;;;;;7.85;72.64;98415.91;5006630;28;9699;-78
2021/12/29 04:01:39;;;;;;;;;35.75;34.50;;;;;7.88;73.08;98418.47;4974718;28;8882;-77
2021/12/29 04:04:08;;;;;;;;;43.75;36.50;;;;;7.95;73.42;98413.22;4946575;28;8872;-77
2021/12/29 04:06:37;;;;;;;;;43.25;39.75;;;;;7.99;73.10;98422.69;5001681;28;8857;-78
2021/12/29 04:09:06;;;;;;;;;44.25;40.75;;;;;8.02;72.68;98427.00;4966257;28;8866;-79
2021/12/29 04:11:35;;;;;;;;;47.25;40.75;;;;;7.94;73.18;98421.88;4990111;28;8850;-78
2021/12/29 04:14:04;;;;;;;;;96.33;75.00;;;;;7.99;72.29;98427.88;4990044;28;8918;-79
2021/12/29 04:16:36;;;;;;;;;146.00;130.00;;;;;7.98;72.69;98435.69;4987629;28;9357;-78
2021/12/29 04:19:14;;;;;;;;;116.25;92.25;;;;;8.02;72.98;98437.41;4962440;28;11619;-76
2021/12/29 04:21:45;;;;;;;;;70.25;57.50;;;;;8.04;72.69;98434.78;5006104;28;10415;-78
2021/12/29 04:24:15;;;;;;;;;69.00;55.00;;;;;7.93;72.99;98435.72;4990396;28;8878;-79
2021/12/29 04:26:43;;;;;;;;;56.50;44.25;;;;;7.94;72.71;98445.25;4990636;28;8870;-77
2021/12/29 04:29:13;;;;;;;;;77.50;61.25;;;;;8.00;72.84;98445.19;5007654;28;8870;-77
2021/12/29 04:31:43;;;;;;;;;63.25;50.50;;;;;8.11;73.08;98452.00;5055082;28;8859;-77
2021/12/29 04:34:13;;;;;;;;;59.50;45.00;;;;;8.14;72.62;98452.84;5042677;28;9003;-77
2021/12/29 04:36:42;;;;;;;;;48.00;40.50;;;;;8.12;72.62;98458.94;5066776;28;9014;-77
2021/12/29 04:39:12;;;;;;;;;46.00;39.50;;;;;8.11;72.52;98465.00;5058423;28;9605;-77
2021/12/29 04:41:41;;;;;;;;;40.00;37.67;;;;;8.15;72.14;98464.97;5068382;28;8869;-77
2021/12/29 04:44:10;;;;;;;;;51.75;42.75;;;;;8.09;73.33;98459.84;5088685;28;8873;-76
2021/12/29 04:46:44;;;;;;;;;21.50;21.00;;;;;8.10;73.17;98464.16;5070934;28;8854;-78
2021/12/29 04:49:22;;;;;;;;;35.75;31.25;;;;;8.13;72.48;98464.13;5053928;28;8870;-79
2021/12/29 04:51:56;;;;;;;;;45.75;40.25;;;;;8.16;72.75;98468.44;5068770;28;8880;-78
2021/12/29 04:54:25;;;;;;;;;40.20;34.60;;;;;8.18;72.69;98470.16;5050518;28;8856;-78
2021/12/29 04:56:55;;;;;;;;;105.00;81.25;;;;;8.23;73.26;98471.84;5063982;28;8856;-77
2021/12/29 04:59:24;;;;;;;;;101.25;82.25;;;;;8.29;72.91;98476.97;5059258;28;9662;-78
2021/12/29 05:01:54;;;;;;;;;45.50;40.75;;;;;8.23;72.05;98488.28;5049119;28;9782;-77
2021/12/29 05:04:32;;;;;;;;;56.75;47.50;;;;;8.24;72.33;98484.81;5045595;28;8858;-78
2021/12/29 05:09:48;;;;;;;;;51.00;44.50;;;;;8.09;73.37;98491.00;5058777;28;8850;-78
2021/12/29 05:12:16;;;;;;;;;85.33;69.00;;;;;8.09;74.13;98491.00;5051128;28;8864;-77
2021/12/29 05:14:45;;;;;;;;;87.50;66.75;;;;;8.16;74.54;98497.00;5050003;28;9089;-78
2021/12/29 05:17:14;;;;;;;;;70.00;55.75;;;;;8.22;74.78;98498.69;5015006;28;8874;-78
2021/12/29 05:19:44;;;;;;;;;66.25;54.00;;;;;8.28;74.04;98498.63;5069685;28;8850;-78
2021/12/29 05:22:13;;;;;;;;;58.00;49.75;;;;;8.32;74.28;98509.00;5066424;28;9582;-78
2021/12/29 05:24:42;;;;;;;;;59.00;44.50;;;;;8.37;74.02;98504.63;5039900;28;8841;-78
2021/12/29 05:27:11;;;;;;;;;279.33;237.33;;;;;8.39;73.83;98505.47;5053888;28;8873;-78
2021/12/29 05:29:39;;;;;;;;;38.50;34.50;;;;;8.26;73.23;98505.56;5066269;28;8941;-77
2021/12/29 05:32:09;;;;;;;;;50.00;43.25;;;;;8.23;73.49;98510.81;5021196;28;8893;-79
2021/12/29 05:34:38;;;;;;;;;81.75;64.75;;;;;8.16;74.10;98517.75;5006010;28;9022;-79
2021/12/29 05:37:08;;;;;;;;;59.25;51.00;;;;;8.20;74.50;98512.56;5037439;28;8991;-77
2021/12/29 05:39:37;;;;;;;;;68.00;53.75;;;;;7.80;74.52;98518.00;5027777;28;9620;-78
2021/12/29 05:42:06;;;;;;;;;72.25;58.75;;;;;7.37;76.69;98530.31;5028544;28;8854;-78
2021/12/29 05:44:35;;;;;;;;;56.00;46.50;;;;;7.24;77.37;98526.94;5025895;28;8866;-78
2021/12/29 05:47:04;;;;;;;;;62.75;51.00;;;;;7.37;77.68;98535.50;5028834;28;8927;-77
2021/12/29 05:49:33;;;;;;;;;63.75;52.25;;;;;7.56;77.60;98536.28;5011316;28;8987;-77
2021/12/29 05:52:02;;;;;;;;;68.50;52.00;;;;;7.64;77.57;98539.72;5011844;28;8870;-79
2021/12/29 05:54:32;;;;;;;;;62.75;48.50;;;;;7.79;77.17;98538.78;5014292;28;9595;-78
2021/12/29 05:57:01;;;;;;;;;49.00;43.50;;;;;7.93;76.58;98542.16;5011217;28;9300;-77
2021/12/29 05:59:29;;;;;;;;;43.00;37.75;;;;;7.97;76.63;98545.59;5040990;28;8848;-78
2021/12/29 06:01:58;;;;;;;;;42.75;41.75;;;;;8.01;75.79;98547.28;5037099;28;8904;-77
2021/12/29 06:04:27;;;;;;;;;54.25;45.25;;;;;8.07;75.72;98552.47;5054104;28;8846;-77
2021/12/29 06:06:56;;;;;;;;;56.00;46.75;;;;;8.14;75.34;98558.47;5057110;28;8898;-78
2021/12/29 06:09:25;;;;;;;;;55.50;45.75;;;;;8.19;75.27;98559.31;5050646;28;8861;-79
2021/12/29 06:11:55;;;;;;;;;45.50;41.50;;;;;8.22;74.60;98563.59;5048848;28;8988;-78
2021/12/29 06:14:24;;;;;;;;;54.25;44.50;;;;;8.15;74.33;98561.06;5051428;28;8859;-78
2021/12/29 06:16:53;;;;;;;;;57.75;44.75;;;;;8.19;75.40;98567.09;5068816;28;8974;-78
2021/12/29 06:19:22;;;;;;;;;53.00;45.75;;;;;8.20;74.96;98564.50;5060191;28;8886;-78
2021/12/29 06:21:51;;;;;;;;;51.25;44.00;;;;;8.19;74.61;98570.53;5048384;28;8919;-77
2021/12/29 06:24:20;;;;;;;;;52.75;47.00;;;;;8.14;75.08;98574.91;5060946;28;8878;-78
2021/12/29 06:26:49;;;;;;;;;44.00;40.75;;;;;8.16;75.48;98580.09;5044231;28;8877;-77
2021/12/29 06:29:20;;;;;;;;;57.75;46.75;;;;;8.19;75.60;98575.75;5011430;28;8850;-78
2021/12/29 06:31:50;;;;;;;;;52.75;45.75;;;;;8.21;75.46;98578.31;5011384;28;8861;-78
2021/12/29 06:34:19;;;;;;;;;50.00;44.25;;;;;8.20;75.49;98581.78;5028047;28;8862;-78
2021/12/29 06:36:47;;;;;;;;;52.50;46.75;;;;;8.23;74.99;98579.19;5029151;28;8866;-79
2021/12/29 06:39:16;;;;;;;;;66.25;53.00;;;;;8.15;74.35;98579.22;5015043;28;8850;-77
2021/12/29 06:41:46;;;;;;;;;61.75;49.00;;;;;8.19;75.30;98591.31;5031192;28;8843;-77
2021/12/29 06:44:15;;;;;;;;;60.50;47.50;;;;;8.22;75.86;98590.44;5031847;28;8890;-77
2021/12/29 06:46:45;;;;;;;;;68.50;51.75;;;;;8.24;75.73;98586.13;4982541;28;8858;-78
2021/12/29 06:49:14;;;;;;;;;72.25;58.00;;;;;8.08;75.55;98589.66;5031179;28;8882;-78
2021/12/29 06:51:43;;;;;;;;;73.75;60.00;;;;;8.00;75.17;98600.94;5047483;28;8884;-79
2021/12/29 06:54:11;;;;;;;;;79.00;60.75;;;;;8.09;75.81;98596.56;4982339;28;8878;-78
2021/12/29 06:56:40;;;;;;;;;74.00;59.75;;;;;8.15;76.46;98596.56;5030889;28;8861;-79
2021/12/29 06:59:09;;;;;;;;;65.50;53.00;;;;;8.21;75.91;98604.31;5046783;28;8861;-77
2021/12/29 07:01:38;;;;;;;;;64.25;53.00;;;;;8.30;76.40;98603.34;5029927;28;8883;-78
2021/12/29 07:04:09;;;;;;;;;49.50;44.50;;;;;8.20;75.72;98610.34;5015472;28;8851;-79
2021/12/29 07:06:38;;;;;;;;;67.25;52.00;;;;;8.25;76.36;98615.53;5030101;28;8839;-77
2021/12/29 07:09:06;;;;;;;;;64.75;49.25;;;;;8.28;76.15;98623.28;5030941;28;8847;-77
2021/12/29 07:11:37;;;;;;;;;57.75;48.75;;;;;7.86;75.55;98630.44;4982693;28;8856;-77
2021/12/29 07:14:08;;;;;;;;;65.25;51.50;;;;;7.43;77.76;98639.25;5030777;28;8847;-77
2021/12/29 07:16:39;;;;;;;;;65.25;53.50;;;;;7.59;77.93;98637.47;5014300;28;8967;-78
2021/12/29 07:19:10;;;;;;;;;58.75;49.25;;;;;7.73;78.44;98633.09;5014168;28;9565;-77
2021/12/29 07:21:39;;;;;;;;;63.50;51.25;;;;;7.85;77.50;98644.31;5026085;28;9066;-78
2021/12/29 07:24:08;;;;;;;;;62.25;51.25;;;;;7.99;77.49;98639.91;4994522;28;8854;-78
2021/12/29 07:26:37;;;;;;;;;63.25;51.75;;;;;8.02;77.10;98645.09;5010208;28;9572;-79
2021/12/29 07:29:08;;;;;;;;;62.50;46.00;;;;;8.11;76.58;98636.38;5010433;28;8953;-77
2021/12/29 07:31:37;;;;;;;;;55.50;47.25;;;;;8.15;75.77;98648.50;5010250;28;9710;-77
2021/12/29 07:34:21;;;;;;;;;60.25;49.50;;;;;8.04;76.05;98653.72;5026647;28;8888;-78
2021/12/29 07:36:51;;;;;;;;;66.50;52.50;;;;;8.12;76.88;98653.69;5029117;28;8858;-78
2021/12/29 07:39:19;;;;;;;;;65.50;50.75;;;;;8.12;77.07;98662.34;5046453;28;8890;-76
2021/12/29 07:41:49;;;;;;;;;63.75;47.25;;;;;8.05;75.71;98660.63;5029929;28;8858;-78
2021/12/29 07:44:22;;;;;;;;;44.00;35.75;;;;;7.89;75.99;98664.19;5029714;28;8862;-79
2021/12/29 07:46:54;;;;;;;;;64.25;52.00;;;;;7.96;75.54;98660.69;5029247;28;8850;-77
2021/12/29 07:49:25;;;;;;;;;65.00;49.75;;;;;7.97;76.15;98662.41;5033164;28;8866;-78
2021/12/29 07:51:55;;;;;;;;;66.50;52.25;;;;;7.97;75.26;98662.41;5013585;28;9637;-75
2021/12/29 07:54:24;;;;;;;;;70.00;55.00;;;;;7.96;76.44;98666.75;5047704;28;8861;-76
2021/12/29 07:56:52;;;;;;;;;68.25;55.75;;;;;8.00;76.05;98662.41;5045937;28;8873;-75
2021/12/29 07:59:21;;;;;;;;;61.00;51.00;;;;;7.85;75.65;98663.34;5059307;28;8851;-76
2021/12/29 08:01:51;;;;;;;;;67.75;54.75;;;;;7.93;76.59;98664.16;5063636;28;8882;-76
2021/12/29 08:04:20;;;;;;;;;68.25;55.50;;;;;7.99;75.88;98660.66;5054867;28;8922;-77
2021/12/29 08:06:52;;;;;;;;;69.75;54.00;;;;;7.97;76.18;98658.06;5069390;28;8850;-75
2021/12/29 08:09:20;;;;;;;;;63.25;52.25;;;;;8.08;75.99;98658.03;5054797;28;8985;-75
2021/12/29 08:11:50;;;;;;;;;66.25;53.75;;;;;8.14;75.17;98665.78;5037154;28;8891;-76
2021/12/29 08:14:19;;;;;;;;;69.50;58.25;;;;;7.80;75.43;98667.66;5067805;28;8859;-76
2021/12/29 08:16:48;;;;;;;;;71.75;58.25;;;;;7.96;76.03;98661.56;5066014;28;8852;-75
2021/12/29 08:19:17;;;;;;;;;73.00;58.50;;;;;8.06;76.26;98664.13;5089464;28;8846;-75
2021/12/29 08:21:46;;;;;;;;;66.00;55.00;;;;;7.99;75.66;98671.06;5088751;28;8854;-77
2021/12/29 08:24:22;;;;;;;;;73.50;57.50;;;;;7.99;76.77;98677.09;5029694;28;8874;-76
2021/12/29 08:26:50;;;;;;;;;67.25;53.75;;;;;7.98;75.91;98669.34;5029077;28;8956;-76
2021/12/29 08:29:19;;;;;;;;;65.75;52.75;;;;;7.77;75.57;98673.75;5006662;28;8953;-75
2021/12/29 08:31:48;;;;;;;;;69.25;56.50;;;;;7.77;76.17;98675.47;5022453;28;8889;-76
2021/12/29 08:34:17;;;;;;;;;68.75;53.00;;;;;7.65;77.78;98686.75;4991318;28;8868;-74
2021/12/29 08:36:45;;;;;;;;;70.25;55.00;;;;;7.76;78.28;98672.00;5025856;28;8963;-76
2021/12/29 08:39:15;;;;;;;;;66.00;52.00;;;;;7.94;77.60;98675.38;5010434;28;8860;-76
2021/12/29 08:41:46;;;;;;;;;68.75;54.25;;;;;7.92;77.12;98678.03;5023279;28;8866;-76
2021/12/29 08:44:15;;;;;;;;;67.75;55.25;;;;;8.09;76.44;98679.66;5027535;28;8972;-78
2021/12/29 08:46:44;;;;;;;;;73.75;58.00;;;;;8.20;76.83;98672.69;5021119;28;8866;-75
2021/12/29 08:49:13;;;;;;;;;71.75;59.50;;;;;8.25;75.20;98683.06;5025554;28;8876;-74
2021/12/29 08:51:42;;;;;;;;;78.00;61.75;;;;;7.91;76.02;98680.63;4999642;28;8859;-75
2021/12/29 08:54:11;;;;;;;;;75.00;58.50;;;;;7.85;76.79;98686.69;5005049;28;8989;-75
2021/12/29 08:56:40;;;;;;;;;71.00;56.00;;;;;7.72;76.89;98690.19;5042890;28;8866;-76
2021/12/29 08:59:12;;;;;;;;;77.00;61.50;;;;;7.85;77.79;98688.44;5011637;28;8870;-76
2021/12/29 09:01:41;;;;;;;;;64.50;52.00;;;;;8.02;77.56;98684.03;5041138;28;9712;-74
2021/12/29 09:04:10;;;;;;;;;75.75;58.25;;;;;8.18;77.16;98683.09;5028537;28;8900;-75
2021/12/29 09:06:39;;;;;;;;;73.00;58.25;;;;;8.24;76.36;98690.00;5042889;28;8920;-75
2021/12/29 09:09:08;;;;;;;;;78.00;62.50;;;;;8.25;75.70;98678.72;5045048;28;8880;-78
2021/12/29 09:11:36;;;;;;;;;74.00;58.00;;;;;8.10;75.14;98678.81;5028640;28;9604;-77
2021/12/29 09:14:06;;;;;;;;;75.75;58.75;;;;;7.89;75.71;98675.41;5028011;28;8919;-77
2021/12/29 09:16:37;;;;;;;;;73.00;60.75;;;;;8.03;76.04;98672.75;5044492;28;8966;-76
2021/12/29 09:19:10;;;;;;;;;73.00;60.00;;;;;8.17;76.11;98676.16;5003771;28;8888;-74
2021/12/29 09:21:43;;;;;;;;;84.75;63.50;;;;;8.14;76.14;98673.56;5006446;28;8876;-76
2021/12/29 09:24:12;;;;;;;;;83.00;63.00;;;;;8.27;76.08;98676.97;5008108;28;8868;-76
2021/12/29 09:26:41;;;;;;;;;65.00;54.75;;;;;8.31;76.14;98670.88;4968209;28;8867;-76
2021/12/29 09:29:09;;;;;;;;;83.50;64.50;;;;;8.45;76.26;98681.25;4980562;28;9062;-75
2021/12/29 09:31:39;;;;;;;;;73.25;57.75;;;;;8.60;75.74;98675.09;4986461;28;9597;-74
2021/12/29 09:34:14;;;;;;;;;76.25;61.25;;;;;8.64;74.97;98673.31;4956334;28;9027;-78
2021/12/29 09:36:43;;;;;;;;;76.25;61.00;;;;;8.66;74.51;98671.56;5007528;28;9534;-75
2021/12/29 09:39:12;;;;;;;;;74.00;59.50;;;;;8.74;75.15;98667.19;5008642;28;8864;-76
2021/12/29 09:41:41;;;;;;;;;71.75;57.50;;;;;8.82;74.47;98660.19;5005128;28;8862;-75
2021/12/29 09:44:10;;;;;;;;;73.50;57.50;;;;;8.89;74.67;98656.69;5001438;28;8899;-76
2021/12/29 09:46:40;;;;;;;;;68.25;56.25;;;;;8.97;75.15;98660.06;4987922;28;9019;-76
2021/12/29 09:49:10;;;;;;;;;70.50;57.50;;;;;9.06;74.40;98648.72;4966376;28;8869;-76
2021/12/29 09:51:39;;;;;;;;;70.25;55.50;;;;;9.12;73.87;98650.41;4950768;28;8878;-76
2021/12/29 09:54:07;;;;;;;;;73.75;59.00;;;;;9.20;73.93;98646.00;4986297;28;8864;-76
2021/12/29 09:56:36;;;;;;;;;64.25;52.25;;;;;9.14;73.75;98651.25;4983011;28;8948;-75
2021/12/29 09:59:05;;;;;;;;;73.25;56.25;;;;;9.22;73.52;98657.25;5005389;28;8993;-76
2021/12/29 10:01:35;;;;;;;;;80.50;61.25;;;;;9.28;73.16;98658.91;4973462;28;8856;-76
2021/12/29 10:04:06;;;;;;;;;73.25;59.75;;;;;9.36;73.18;98652.78;4989191;28;8892;-77
2021/12/29 10:06:35;;;;;;;;;77.00;61.00;;;;;9.40;72.83;98650.16;5021053;28;9715;-75
2021/12/29 10:09:12;;;;;;;;;82.25;64.00;;;;;9.44;73.48;98652.69;5006810;28;8906;-76
2021/12/29 10:11:41;;;;;;;;;79.75;63.25;;;;;9.46;71.75;98652.69;4976093;28;8878;-76
2021/12/29 10:14:11;;;;;;;;;67.00;55.75;;;;;9.13;71.57;98659.94;5010309;28;9665;-75
2021/12/29 10:16:42;;;;;;;;;65.50;51.50;;;;;8.79;72.54;98655.03;5010760;28;8888;-75
2021/12/29 10:19:14;;;;;;;;;69.75;56.25;;;;;8.95;72.74;98659.22;5010324;28;8856;-76
2021/12/29 10:21:45;;;;;;;;;72.00;59.50;;;;;9.04;73.34;98657.44;5046553;28;8892;-75
2021/12/29 10:24:16;;;;;;;;;76.50;61.00;;;;;9.12;73.77;98658.22;5027975;28;8876;-75
2021/12/29 10:26:47;;;;;;;;;72.25;59.00;;;;;8.77;72.76;98656.75;5012754;28;8869;-75
2021/12/29 10:29:19;;;;;;;;;70.00;53.75;;;;;8.81;73.15;98665.41;5069260;28;8976;-75
2021/12/29 10:31:50;;;;;;;;;70.75;57.50;;;;;8.85;73.51;98661.94;5067565;28;8977;-75
2021/12/29 10:34:23;;;;;;;;;74.00;59.00;;;;;8.95;73.54;98655.75;5049717;28;9681;-76
2021/12/29 10:36:55;;;;;;;;;58.75;49.50;;;;;9.04;74.25;98653.09;5070214;28;8892;-74
2021/12/29 10:39:29;;;;;;;;;77.75;60.75;;;;;9.14;72.89;98649.50;5069266;28;8872;-75
2021/12/29 10:42:01;;;;;;;;;79.00;58.75;;;;;9.23;73.50;98647.72;5069292;28;8850;-76
2021/12/29 10:44:33;;;;;;;;;78.00;60.00;;;;;9.32;72.71;98645.03;5062823;28;8893;-76
2021/12/29 10:47:12;;;;;;;;;71.00;56.25;;;;;9.33;72.80;98645.00;5048340;28;8849;-76
2021/12/29 10:49:52;;;;;;;;;77.50;62.75;;;;;9.45;73.51;98653.56;5069724;28;8912;-71
2021/12/29 10:52:33;;;;;;;;;76.50;60.75;;;;;9.50;73.72;98657.81;5068988;28;8871;-70
2021/12/29 10:55:05;;;;;;;;;74.25;57.75;;;;;9.50;71.97;98654.38;5057099;28;8868;-71
2021/12/29 10:57:34;;;;;;;;;76.50;59.25;;;;;9.59;71.87;98658.63;5079809;28;9688;-70
2021/12/29 11:00:08;;;;;;;;;76.50;60.25;;;;;9.68;71.80;98654.19;5070643;28;9546;-76
2021/12/29 11:02:36;;;;;;;;;73.00;59.00;;;;;9.77;71.77;98655.78;5048701;28;8965;-77
2021/12/29 11:05:11;;;;;;;;;73.50;55.75;;;;;9.87;71.75;98656.56;5058110;28;8928;-76
2021/12/29 11:07:41;;;;;;;;;74.50;58.50;;;;;9.79;70.57;98661.00;5081918;28;8989;-75
2021/12/29 11:10:12;;;;;;;;;62.00;50.25;;;;;9.66;71.07;98647.25;5054461;28;9606;-75
2021/12/29 11:12:46;;;;;;;;;81.00;64.00;;;;;9.69;72.01;98650.69;5072194;28;8878;-76
2021/12/29 11:15:16;;;;;;;;;56.50;44.75;;;;;9.43;71.22;98644.91;5052143;28;8820;-76
2021/12/29 11:17:45;;;;;;;;;85.00;66.67;;;;;9.45;72.32;98648.34;5059729;28;10191;-75
2021/12/29 11:20:21;;;;;;;;;85.67;65.33;;;;;9.09;71.84;98655.63;5047690;28;9191;-76
2021/12/29 11:22:50;;;;;;;;;105.00;95.00;;;;;8.61;74.21;98666.41;5071865;28;9337;-76
2021/12/29 11:25:27;;;;;;;;;75.67;60.33;;;;;8.12;76.63;98661.47;5051216;28;10712;-76
2021/12/29 11:27:57;;;;;;;;;82.75;63.25;;;;;8.35;75.95;98661.34;5049373;28;8993;-75
2021/12/29 11:30:25;;;;;;;;;81.00;63.50;;;;;7.90;77.93;98665.91;5056830;28;8860;-76
2021/12/29 11:33:04;;;;;;;;;80.50;61.75;;;;;8.14;78.66;98662.34;5068406;28;8838;-75
2021/12/29 11:35:40;;;;;;;;;79.75;61.25;;;;;8.18;76.98;98661.44;5054029;28;8846;-77
2021/12/29 11:38:09;;;;;;;;;78.50;62.00;;;;;8.27;76.49;98661.38;5071534;28;9704;-77
2021/12/29 11:40:40;;;;;;;;;80.75;62.00;;;;;8.15;77.29;98661.47;5071362;28;8870;-75
2021/12/29 11:43:09;;;;;;;;;81.50;62.50;;;;;8.08;78.10;98658.03;5061151;28;8875;-76
2021/12/29 11:45:40;;;;;;;;;81.75;63.25;;;;;8.36;77.29;98658.75;5051228;28;8997;-77
2021/12/29 11:48:14;;;;;;;;;77.75;60.50;;;;;8.65;76.54;98652.53;5052873;28;8865;-77
2021/12/29 11:50:49;;;;;;;;;77.75;61.25;;;;;8.78;76.27;98642.91;5074574;28;8848;-77
2021/12/29 11:53:46;;;;;;;;;81.00;63.00;;;;;9.07;75.64;98639.19;5039858;28;8890;-76